Pays
Station

 

Conditions  météo  pour  Monclova, Coah.  -  Mexique    Mexique

  
32 °C
    
 
 

METAR pour Monclova, Coah. :

MMMV 202040Z 29005KT 10SM SCT150 BKN200 32/08 A2980 RMK8/072

 

Voici le bulletin pour Monclova, Coah. - Mexique.
 
Le bulletin a été fait il y a 3 heures et 31 minutes, à 20:40 UTC .
Le vent soufflait à la vitesse de 2.6 mètres par seconde de Ouest/Nord-ouest (290°).
 
La température était de 32 °C, avec un point de rosée à 8 °C.
La température ressentie était de 31 °C.
 
La pression atmosphérique était de 1009 hPa.
L'humidité relative était de 22.6%.
 
Il y avait 3 à 4/8ème de nébulosité à une hauteur de 4572 mètres et 5 à 7/8ème de nébulosité à une hauteur de 6096 mètres.
 
La visibilité globale était de 16.1 kilomètres.
 

 
 
 

Pays :   A   B   C   D   E   F   G   H   I   J   K   L   M   N   O   P   Q   R   S   T   U   V   W   Y   Z

 

Partenaires :  Info Météo avec Met'info
Météo Marine avec MeteoMarine.net
Infos Site  |  Infos Légales  |  Crédits  |  Confidentialité
Contactez-nous  |  Ajouter aux favoris
© 2013-2018 METAR - Tous droits réservés